Time;durP1;ratioP1;P1;durP2;ratioP2;P2;SDS_P1;SDS_P2;PMS_P1;PMS_P2;Temp;Humidity;BMP_temperature;BMP_pressure;BME280_temperature;BME280_humidity;BME280_pressure;Samples;Min_cycle;Max_cycle;Signal;HPM_P1;HPM_P2
2023/11/25 00:00:54;;;;;;;8.93;4.13;;;;;;;10.69;100.00;90888.28;5071561;28;20088;-81
2023/11/25 00:03:21;;;;;;;11.75;3.95;;;;;;;10.63;100.00;90887.56;5068578;28;20063;-82
2023/11/25 00:05:50;;;;;;;9.77;4.05;;;;;;;10.56;100.00;90864.75;5070084;28;20059;-82
2023/11/25 00:08:17;;;;;;;10.13;4.07;;;;;;;10.69;100.00;90883.16;5072786;28;20868;-82
2023/11/25 00:10:44;;;;;;;10.13;3.60;;;;;;;10.64;100.00;90871.13;5077618;28;20048;-82
2023/11/25 00:13:11;;;;;;;8.90;4.10;;;;;;;10.66;100.00;90871.63;5070788;28;20056;-82
2023/11/25 00:15:38;;;;;;;10.13;4.68;;;;;;;10.69;100.00;90883.94;5067707;28;20054;-81
2023/11/25 00:18:06;;;;;;;10.65;4.32;;;;;;;10.65;100.00;90864.22;5067545;28;20143;-82
2023/11/25 00:20:35;;;;;;;11.63;4.60;;;;;;;10.65;100.00;90870.09;5066574;28;20044;-82
2023/11/25 00:23:04;;;;;;;11.15;4.50;;;;;;;10.71;100.00;90863.13;5069389;28;20051;-83
2023/11/25 00:25:31;;;;;;;9.40;3.88;;;;;;;10.71;100.00;90847.72;5068517;28;20050;-81
2023/11/25 00:27:58;;;;;;;8.75;3.70;;;;;;;10.79;100.00;90849.72;5070212;28;20052;-81
2023/11/25 00:30:26;;;;;;;9.30;4.10;;;;;;;10.78;100.00;90845.63;5077069;28;20067;-82
2023/11/25 00:32:54;;;;;;;9.63;3.63;;;;;;;10.82;100.00;90840.69;5071578;28;20098;-81
2023/11/25 00:35:21;;;;;;;10.63;3.80;;;;;;;10.80;100.00;90840.22;5070181;28;20140;-82
2023/11/25 00:37:48;;;;;;;5.53;3.13;;;;;;;10.83;100.00;90842.22;5070224;28;20053;-82
2023/11/25 00:40:16;;;;;;;8.63;3.88;;;;;;;10.70;100.00;90823.09;5073844;28;20519;-81
2023/11/25 00:42:43;;;;;;;7.78;3.85;;;;;;;10.80;100.00;90829.94;5069601;28;20135;-81
2023/11/25 00:45:11;;;;;;;7.18;3.75;;;;;;;10.80;100.00;90817.09;5070175;28;20052;-81
2023/11/25 00:47:39;;;;;;;9.77;4.30;;;;;;;10.77;100.00;90813.28;5078862;28;20044;-81
2023/11/25 00:50:08;;;;;;;9.63;3.75;;;;;;;10.77;100.00;90820.19;5069962;28;20558;-83
2023/11/25 00:52:35;;;;;;;8.20;4.13;;;;;;;10.68;100.00;90807.19;5069963;28;20088;-81
2023/11/25 00:55:02;;;;;;;9.80;4.20;;;;;;;10.68;100.00;90807.94;5070729;28;20575;-82
2023/11/25 00:57:31;;;;;;;9.10;4.03;;;;;;;10.64;100.00;90808.78;5070787;28;20080;-82
2023/11/25 00:59:58;;;;;;;7.43;3.58;;;;;;;10.61;100.00;90799.03;5079466;28;20044;-82
2023/11/25 01:02:25;;;;;;;10.07;3.95;;;;;;;10.61;100.00;90796.47;5074731;28;20063;-82
2023/11/25 01:04:52;;;;;;;9.27;4.32;;;;;;;10.62;100.00;90793.63;5078784;28;20060;-81
2023/11/25 01:07:19;;;;;;;8.43;4.85;;;;;;;10.54;100.00;90791.63;5072890;28;20049;-82
2023/11/25 01:09:46;;;;;;;11.20;4.32;;;;;;;10.48;100.00;90778.09;5074373;28;20052;-81
2023/11/25 01:12:13;;;;;;;10.60;4.60;;;;;;;10.43;100.00;90768.59;5073950;28;20056;-81
2023/11/25 01:14:42;;;;;;;10.20;4.28;;;;;;;10.35;100.00;90764.03;5072303;28;20424;-81
2023/11/25 01:17:08;;;;;;;9.68;4.35;;;;;;;10.37;100.00;90776.59;5076071;28;20414;-81
2023/11/25 01:19:35;;;;;;;9.98;4.93;;;;;;;10.28;100.00;90755.88;5069275;28;20098;-81
2023/11/25 01:22:03;;;;;;;7.35;4.40;;;;;;;10.13;100.00;90743.91;5072103;28;20054;-82
2023/11/25 01:24:30;;;;;;;10.07;4.88;;;;;;;10.09;100.00;90748.81;5077736;28;20052;-81
2023/11/25 01:26:58;;;;;;;9.43;5.10;;;;;;;10.13;100.00;90744.69;5073039;28;20055;-81
2023/11/25 01:29:24;;;;;;;8.73;5.10;;;;;;;10.13;100.00;90747.25;5076230;28;20052;-80
2023/11/25 01:31:53;;;;;;;13.10;5.82;;;;;;;10.07;100.00;90738.06;5069519;28;20078;-82
2023/11/25 01:34:20;;;;;;;12.50;6.38;;;;;;;10.11;100.00;90730.59;5068894;28;20498;-82
2023/11/25 01:36:47;;;;;;;11.95;5.30;;;;;;;10.11;100.00;90722.91;5069110;28;20048;-82
2023/11/25 01:39:14;;;;;;;12.82;6.15;;;;;;;10.18;100.00;90725.16;5070055;28;20045;-82
2023/11/25 01:41:43;;;;;;;13.55;6.40;;;;;;;10.12;100.00;90724.44;5067757;28;20056;-83
2023/11/25 01:44:10;;;;;;;12.75;6.50;;;;;;;10.05;100.00;90698.31;5071687;28;20053;-83
2023/11/25 01:46:39;;;;;;;10.40;6.07;;;;;;;10.10;100.00;90711.88;5072680;28;20157;-84
2023/11/25 01:49:09;;;;;;;14.52;7.63;;;;;;;10.11;100.00;90705.72;5068233;28;20044;-83
2023/11/25 01:51:38;;;;;;;13.80;6.68;;;;;;;10.06;100.00;90698.06;5070968;28;22506;-82
2023/11/25 01:54:07;;;;;;;12.23;6.20;;;;;;;10.07;100.00;90680.88;5068842;28;20055;-83
2023/11/25 01:56:34;;;;;;;12.02;6.60;;;;;;;10.11;100.00;90690.34;5068561;28;20041;-82
2023/11/25 01:59:04;;;;;;;12.57;7.05;;;;;;;10.11;100.00;90692.13;5067795;28;20051;-83
2023/11/25 02:01:31;;;;;;;9.00;6.07;;;;;;;9.99;100.00;90670.16;5085080;28;20167;-83
2023/11/25 02:03:58;;;;;;;8.63;5.55;;;;;;;10.06;100.00;90674.97;5077900;28;20052;-82
2023/11/25 02:06:27;;;;;;;9.75;4.75;;;;;;;10.01;100.00;90678.34;5072686;28;20052;-83
2023/11/25 02:08:54;;;;;;;8.65;4.82;;;;;;;10.00;100.00;90673.50;5083421;28;20047;-83
2023/11/25 02:11:23;;;;;;;9.18;5.10;;;;;;;9.98;100.00;90653.25;5071099;28;20060;-82
2023/11/25 02:13:50;;;;;;;8.98;4.25;;;;;;;10.05;100.00;90663.19;5068982;28;20049;-82
2023/11/25 02:16:17;;;;;;;6.28;3.65;;;;;;;10.07;100.00;90668.03;5081269;28;20478;-83
2023/11/25 02:18:44;;;;;;;7.22;4.47;;;;;;;10.09;100.00;90666.72;5068137;28;20494;-82
2023/11/25 02:21:11;;;;;;;7.13;4.32;;;;;;;10.06;100.00;90653.69;5067593;28;20098;-82
2023/11/25 02:23:39;;;;;;;7.35;4.70;;;;;;;10.00;100.00;90646.03;5077563;28;20048;-82
2023/11/25 02:26:08;;;;;;;7.13;4.80;;;;;;;10.05;100.00;90642.69;5068245;28;20045;-82
2023/11/25 02:28:35;;;;;;;8.82;5.00;;;;;;;10.09;100.00;90645.47;5067711;28;20561;-83
2023/11/25 02:31:03;;;;;;;8.23;4.70;;;;;;;9.98;100.00;90632.72;5069436;28;20135;-83
2023/11/25 02:33:35;;;;;;;10.32;6.32;;;;;;;10.09;100.00;90648.78;5067849;28;20048;-83
2023/11/25 02:36:02;;;;;;;9.32;5.80;;;;;;;10.07;100.00;90632.91;5066565;28;20465;-82
2023/11/25 02:38:30;;;;;;;14.40;6.15;;;;;;;10.16;100.00;90641.56;5067740;28;20052;-83
2023/11/25 02:40:58;;;;;;;8.55;6.10;;;;;;;10.09;100.00;90633.38;5069835;28;20135;-82
2023/11/25 02:43:26;;;;;;;12.40;7.47;;;;;;;10.01;100.00;90628.84;5072905;28;20044;-83
2023/11/25 02:45:53;;;;;;;10.90;7.30;;;;;;;10.09;100.00;90641.09;5067528;28;20045;-83
2023/11/25 02:48:20;;;;;;;10.13;6.35;;;;;;;10.09;100.00;90635.22;5066299;28;20044;-83
2023/11/25 02:50:47;;;;;;;11.57;7.43;;;;;;;10.08;100.00;90639.56;5068016;28;20048;-82
2023/11/25 02:53:14;;;;;;;10.57;7.45;;;;;;;10.07;100.00;90632.91;5067877;28;20118;-83
2023/11/25 02:55:42;;;;;;;10.88;7.15;;;;;;;10.09;100.00;90630.06;5076601;28;20044;-82
2023/11/25 02:58:12;;;;;;;11.32;7.22;;;;;;;10.12;100.00;90630.28;5066144;28;20060;-82
2023/11/25 03:00:40;;;;;;;12.98;7.00;;;;;;;10.12;100.00;90630.28;5066841;28;20044;-82
2023/11/25 03:03:12;;;;;;;13.30;6.57;;;;;;;10.02;100.00;90609.88;5071128;28;20060;-82
2023/11/25 03:05:42;;;;;;;12.45;5.45;;;;;;;9.97;100.00;90610.69;5072725;28;20118;-82
2023/11/25 03:08:12;;;;;;;8.43;5.25;;;;;;;10.07;100.00;90617.50;5077449;28;20044;-82
2023/11/25 03:10:42;;;;;;;10.05;4.88;;;;;;;10.03;100.00;90608.81;5067982;28;20059;-82
2023/11/25 03:13:11;;;;;;;8.43;4.90;;;;;;;10.05;100.00;90606.78;5069856;28;20052;-83
2023/11/25 03:15:39;;;;;;;47.30;26.90;;;;;;;10.07;100.00;90609.03;5067093;28;20044;-83
2023/11/25 03:18:07;;;;;;;11.70;6.05;;;;;;;10.05;100.00;90604.22;5070519;28;20044;-81
2023/11/25 03:20:34;;;;;;;52.28;33.75;;;;;;;10.06;100.00;90598.03;5073832;28;20047;-81
2023/11/25 03:23:01;;;;;;;32.90;23.55;;;;;;;10.10;100.00;90596.44;5067427;28;20067;-80
2023/11/25 03:25:30;;;;;;;41.05;31.23;;;;;;;10.10;100.00;90599.00;5072665;28;20050;-80
2023/11/25 03:27:58;;;;;;;14.45;7.75;;;;;;;10.13;100.00;90597.69;5077347;28;20045;-79
2023/11/25 03:30:27;;;;;;;10.15;5.15;;;;;;;10.18;100.00;90591.78;5069920;28;20135;-78
2023/11/25 03:32:54;;;;;;;12.05;6.03;;;;;;;10.21;100.00;90593.78;5067367;28;20055;-79
2023/11/25 03:35:21;;;;;;;24.98;14.65;;;;;;;10.16;100.00;90589.47;5067236;28;20139;-82
2023/11/25 03:37:48;;;;;;;12.52;7.10;;;;;;;10.14;100.00;90582.03;5074740;28;20047;-82
2023/11/25 03:40:15;;;;;;;10.25;6.22;;;;;;;10.24;100.00;90591.44;5069556;28;20049;-79
2023/11/25 03:42:43;;;;;;;18.67;11.88;;;;;;;10.28;100.00;90600.13;5071654;28;20048;-80
2023/11/25 03:45:13;;;;;;;8.73;5.10;;;;;;;10.31;100.00;90586.00;5067514;28;20043;-80
2023/11/25 03:47:43;;;;;;;9.00;6.00;;;;;;;10.26;100.00;90586.81;5066497;28;20062;-80
2023/11/25 03:50:12;;;;;;;9.02;6.15;;;;;;;10.21;100.00;90575.81;5067241;28;20051;-80
2023/11/25 03:52:40;;;;;;;10.23;5.05;;;;;;;10.27;100.00;90585.00;5072111;28;20057;-80
2023/11/25 03:55:09;;;;;;;9.20;5.43;;;;;;;10.22;100.00;90577.34;5066558;28;20048;-80
2023/11/25 03:57:37;;;;;;;6.47;4.50;;;;;;;10.14;100.00;90571.78;5085356;28;20048;-79
2023/11/25 04:00:14;;;;;;;9.60;4.95;;;;;;;10.19;100.00;90570.22;5087680;28;20417;-79
2023/11/25 04:02:43;;;;;;;14.73;7.80;;;;;;;10.22;100.00;90572.22;5081521;28;20040;-79
2023/11/25 04:05:10;;;;;;;8.00;5.82;;;;;;;10.22;100.00;90570.44;5081168;28;20051;-79
2023/11/25 04:07:37;;;;;;;7.35;4.82;;;;;;;10.23;100.00;90573.78;5084900;28;20586;-79
2023/11/25 04:10:12;;;;;;;11.27;6.53;;;;;;;9.96;100.00;90573.22;5085410;28;20052;-78
2023/11/25 04:12:40;;;;;;;5.28;2.75;;;;;;;9.56;100.00;90580.25;5070088;28;20052;-78
2023/11/25 04:15:08;;;;;;;6.07;2.92;;;;;;;8.93;100.00;90567.06;5069693;28;20059;-81
2023/11/25 04:17:35;;;;;;;5.93;2.67;;;;;;;8.38;100.00;90589.03;5072279;28;20055;-79
2023/11/25 04:20:12;;;;;;;4.60;2.30;;;;;;;7.88;100.00;90587.09;5070306;28;20448;-79
2023/11/25 04:22:44;;;;;;;4.93;2.30;;;;;;;7.70;100.00;90582.50;5082756;28;20051;-78
2023/11/25 04:25:11;;;;;;;5.85;2.58;;;;;;;7.81;100.00;90594.25;5070758;28;20058;-78
2023/11/25 04:27:40;;;;;;;3.55;2.30;;;;;;;7.60;100.00;90586.59;5070872;28;20050;-79
2023/11/25 04:30:09;;;;;;;3.00;1.90;;;;;;;7.41;100.00;90599.09;5073787;28;20045;-78
2023/11/25 04:32:36;;;;;;;3.22;1.45;;;;;;;7.35;100.00;90600.91;5083792;28;20052;-78
2023/11/25 04:35:06;;;;;;;2.70;1.67;;;;;;;7.38;100.00;90598.84;5075512;28;20053;-78
2023/11/25 04:37:33;;;;;;;1.92;1.20;;;;;;;7.49;100.00;90598.63;5072667;28;20045;-78
2023/11/25 04:40:00;;;;;;;2.50;1.38;;;;;;;7.70;100.00;90602.94;5072521;28;20139;-78
2023/11/25 04:42:28;;;;;;;1.90;1.13;;;;;;;7.43;100.00;90584.31;5069659;28;20051;-78
2023/11/25 04:44:55;;;;;;;4.18;2.55;;;;;;;7.42;100.00;90610.88;5073899;28;20047;-81
2023/11/25 04:47:23;;;;;;;4.07;2.20;;;;;;;7.32;100.00;90615.97;5071559;28;20491;-82
2023/11/25 04:49:50;;;;;;;2.88;1.60;;;;;;;7.27;100.00;90633.84;5078451;28;20044;-82
2023/11/25 04:52:18;;;;;;;2.95;2.10;;;;;;;7.26;100.00;90627.19;5069581;28;20056;-82
2023/11/25 04:54:46;;;;;;;3.38;2.22;;;;;;;7.05;100.00;90607.47;5068965;28;20074;-82
2023/11/25 04:57:14;;;;;;;7.28;2.45;;;;;;;6.55;100.00;90614.75;5072506;28;20103;-79
2023/11/25 04:59:41;;;;;;;1.95;1.05;;;;;;;6.13;100.00;90626.53;5072618;28;20091;-78
2023/11/25 05:02:08;;;;;;;1.52;0.80;;;;;;;6.01;100.00;90631.75;5070028;28;20059;-79
2023/11/25 05:04:35;;;;;;;1.27;0.40;;;;;;;5.16;100.00;90636.47;5068752;28;20084;-79
2023/11/25 05:07:03;;;;;;;1.77;0.73;;;;;;;4.93;100.00;90632.41;5085047;28;20044;-79
2023/11/25 05:09:32;;;;;;;0.95;0.55;;;;;;;4.49;100.00;90649.22;5074011;28;20048;-78
2023/11/25 05:11:59;;;;;;;0.70;0.35;;;;;;;4.27;100.00;90667.75;5068122;28;20044;-80
2023/11/25 05:14:26;;;;;;;2.90;1.35;;;;;;;4.26;100.00;90662.94;5069458;28;20650;-78
2023/11/25 05:16:54;;;;;;;1.20;0.60;;;;;;;4.27;100.00;90667.00;5077915;28;20165;-79
2023/11/25 05:19:21;;;;;;;1.17;0.63;;;;;;;4.45;100.00;90678.69;5083552;28;20045;-79
2023/11/25 05:21:49;;;;;;;1.52;0.52;;;;;;;4.22;100.00;90677.09;5076300;28;20077;-79
2023/11/25 05:24:16;;;;;;;1.00;0.47;;;;;;;4.00;100.00;90685.44;5076454;28;20097;-79
2023/11/25 05:26:44;;;;;;;0.90;0.70;;;;;;;3.79;100.00;90687.66;5081932;28;20048;-79
2023/11/25 05:29:11;;;;;;;1.00;0.70;;;;;;;3.61;100.00;90694.50;5070593;28;20054;-81
2023/11/25 05:31:38;;;;;;;0.90;0.50;;;;;;;3.64;100.00;90700.09;5071502;28;20094;-80
2023/11/25 05:34:05;;;;;;;0.90;0.40;;;;;;;3.48;100.00;90699.88;5068118;28;20052;-79
2023/11/25 05:36:33;;;;;;;1.38;0.75;;;;;;;3.65;100.00;90710.03;5069903;28;20048;-79
2023/11/25 05:39:00;;;;;;;1.27;0.70;;;;;;;3.69;100.00;90723.81;5068626;28;20091;-79
2023/11/25 05:41:27;;;;;;;0.73;0.43;;;;;;;3.41;100.00;90722.06;5068570;28;20074;-78
2023/11/25 05:43:57;;;;;;;1.60;1.13;;;;;;;3.06;100.00;90734.66;5068439;28;20041;-78
2023/11/25 05:46:24;;;;;;;2.55;0.73;;;;;;;2.83;100.00;90715.22;5068789;28;20045;-78
2023/11/25 05:48:53;;;;;;;0.65;0.50;;;;;;;2.79;100.00;90749.63;5068653;28;20049;-78
2023/11/25 05:51:20;;;;;;;1.23;0.70;;;;;;;2.65;100.00;90749.09;5070134;28;20053;-80
2023/11/25 05:53:48;;;;;;;1.25;0.80;;;;;;;2.84;100.00;90771.75;5071698;28;20056;-77
2023/11/25 05:56:14;;;;;;;1.48;0.50;;;;;;;2.83;100.00;90782.91;5067140;28;20067;-77
2023/11/25 05:58:41;;;;;;;1.25;0.70;;;;;;;3.02;100.00;90773.38;5068205;28;20050;-77
2023/11/25 06:01:10;;;;;;;1.63;0.60;;;;;;;2.83;100.00;90785.44;5075193;28;20414;-77
2023/11/25 06:03:42;;;;;;;6.32;3.10;;;;;;;2.66;100.00;90801.31;5071323;28;20045;-77
2023/11/25 06:06:10;;;;;;;17.27;8.68;;;;;;;2.34;100.00;90794.03;5077311;28;20577;-76
2023/11/25 06:08:37;;;;;;;4.88;2.45;;;;;;;2.14;100.00;90790.81;5076819;28;20044;-76
2023/11/25 06:11:05;;;;;;;7.05;4.13;;;;;;;1.76;100.00;90804.59;5068475;28;20040;-77
2023/11/25 06:13:32;;;;;;;8.80;5.22;;;;;;;1.98;100.00;90814.22;5070510;28;20489;-75
2023/11/25 06:15:58;;;;;;;6.72;4.00;;;;;;;2.02;100.00;90828.00;5068119;28;20053;-74
2023/11/25 06:18:27;;;;;;;2.40;1.50;;;;;;;2.12;100.00;90837.59;5071775;28;20045;-74
2023/11/25 06:20:54;;;;;;;6.18;3.90;;;;;;;2.24;100.00;90837.63;5070385;28;20928;-74
2023/11/25 06:23:21;;;;;;;28.40;7.72;;;;;;;2.07;100.00;90824.81;5077098;28;20050;-73
2023/11/25 06:25:48;;;;;;;7.40;2.80;;;;;;;2.07;100.00;90820.53;5075576;28;20524;-73
2023/11/25 06:28:15;;;;;;;2.55;2.30;;;;;;;1.96;100.00;90823.81;5070370;28;20054;-73
2023/11/25 06:30:43;;;;;;;4.57;3.78;;;;;;;2.20;100.00;90818.78;5067975;28;20052;-73
2023/11/25 06:33:10;;;;;;;8.40;6.00;;;;;;;2.25;100.00;90824.75;5068875;28;20052;-72
2023/11/25 06:35:38;;;;;;;9.13;6.60;;;;;;;2.48;100.00;90830.84;5068274;28;20040;-72
2023/11/25 06:38:07;;;;;;;11.48;7.13;;;;;;;2.65;100.00;90828.41;5068990;28;20036;-72
2023/11/25 06:40:35;;;;;;;24.52;10.77;;;;;;;2.34;100.00;90819.34;5073303;28;20037;-72
2023/11/25 06:43:02;;;;;;;18.33;9.45;;;;;;;2.04;100.00;90795.63;5070035;28;20043;-72
2023/11/25 06:45:29;;;;;;;10.10;5.60;;;;;;;2.25;100.00;90794.38;5069643;28;20418;-72
2023/11/25 06:47:56;;;;;;;4.22;2.40;;;;;;;2.11;100.00;90793.78;5069146;28;20054;-72
2023/11/25 06:50:22;;;;;;;2.03;1.20;;;;;;;2.12;100.00;90813.06;5071829;28;20040;-72
2023/11/25 06:52:51;;;;;;;7.85;4.22;;;;;;;2.30;100.00;90803.06;5072411;28;20058;-73
2023/11/25 06:55:18;;;;;;;6.18;3.78;;;;;;;2.64;100.00;90811.66;5075446;28;20040;-72
2023/11/25 06:57:45;;;;;;;7.72;3.60;;;;;;;2.52;100.00;90799.00;5070798;28;20068;-72
2023/11/25 07:00:13;;;;;;;5.18;2.92;;;;;;;2.13;100.00;90798.66;5071520;28;20046;-72
2023/11/25 07:02:41;;;;;;;9.52;5.07;;;;;;;2.49;100.00;90799.44;5073151;28;20361;-72
2023/11/25 07:05:08;;;;;;;9.27;7.53;;;;;;;2.67;100.00;90805.38;5074994;28;20745;-72
2023/11/25 07:07:35;;;;;;;14.80;11.23;;;;;;;2.89;100.00;90800.53;5076518;28;20048;-72
2023/11/25 07:10:04;;;;;;;14.18;9.75;;;;;;;2.82;100.00;90771.22;5074934;28;20565;-73
2023/11/25 07:12:33;;;;;;;7.35;5.50;;;;;;;2.97;100.00;90799.44;5074760;28;20071;-72
2023/11/25 07:15:00;;;;;;;4.85;3.60;;;;;;;2.57;100.00;90745.13;5078488;28;20052;-73
2023/11/25 07:17:27;;;;;;;4.90;3.33;;;;;;;2.97;100.00;90813.84;5077389;28;20118;-73
2023/11/25 07:19:54;;;;;;;4.35;3.30;;;;;;;2.88;100.00;90828.63;5073598;28;20055;-73
2023/11/25 07:22:21;;;;;;;6.95;5.88;;;;;;;2.83;100.00;90813.31;5072209;28;20036;-73
2023/11/25 07:24:48;;;;;;;8.70;5.30;;;;;;;2.91;100.00;90807.91;5074321;28;20047;-73
2023/11/25 07:27:18;;;;;;;8.85;6.18;;;;;;;2.63;100.00;90806.81;5069824;28;20059;-73
2023/11/25 07:29:45;;;;;;;6.70;5.22;;;;;;;2.77;100.00;90803.06;5073952;28;20048;-73
2023/11/25 07:32:14;;;;;;;10.23;5.70;;;;;;;2.76;100.00;90798.22;5075327;28;20040;-73
2023/11/25 07:34:40;;;;;;;8.93;5.40;;;;;;;2.93;100.00;90809.22;5080389;28;20050;-73
2023/11/25 07:37:08;;;;;;;6.45;4.43;;;;;;;2.90;100.00;90802.06;5080741;28;20067;-73
2023/11/25 07:39:35;;;;;;;5.15;3.88;;;;;;;2.96;100.00;90802.94;5082178;28;20047;-73
2023/11/25 07:42:04;;;;;;;5.00;3.50;;;;;;;3.04;100.00;90805.13;5077107;28;20052;-73
2023/11/25 07:44:32;;;;;;;3.83;2.20;;;;;;;2.98;100.00;90800.97;5076022;28;20044;-74
2023/11/25 07:47:01;;;;;;;4.05;2.22;;;;;;;2.91;100.00;90798.53;5072609;28;20057;-73
2023/11/25 07:49:29;;;;;;;4.53;3.22;;;;;;;2.46;100.00;90772.00;5074114;28;20052;-74
2023/11/25 07:51:56;;;;;;;3.65;2.45;;;;;;;2.44;100.00;90785.91;5077773;28;20051;-73
2023/11/25 07:54:23;;;;;;;4.70;2.63;;;;;;;2.22;100.00;90782.13;5073288;28;20052;-73
2023/11/25 07:56:50;;;;;;;3.33;2.08;;;;;;;2.19;100.00;90777.50;5075363;28;20047;-73
2023/11/25 07:59:18;;;;;;;3.42;1.92;;;;;;;1.68;100.00;90670.78;5073733;28;20071;-73
2023/11/25 08:01:47;;;;;;;3.78;2.28;;;;;;;2.45;100.00;90782.38;5075861;28;20052;-73
2023/11/25 08:04:13;;;;;;;3.90;2.97;;;;;;;2.69;100.00;90788.22;5079595;28;20516;-73
2023/11/25 08:06:40;;;;;;;3.20;2.40;;;;;;;2.70;100.00;90787.22;5076032;28;20504;-73
2023/11/25 08:09:09;;;;;;;3.35;2.45;;;;;;;2.72;100.00;90787.00;5078664;28;20040;-73
2023/11/25 08:11:36;;;;;;;4.80;3.30;;;;;;;2.61;100.00;90769.03;5076520;28;20048;-73
2023/11/25 08:14:03;;;;;;;5.50;3.30;;;;;;;2.50;100.00;90785.78;5075358;28;20527;-73
2023/11/25 08:16:29;;;;;;;4.20;2.40;;;;;;;2.56;100.00;90796.03;5079444;28;20040;-74
2023/11/25 08:18:58;;;;;;;4.40;2.65;;;;;;;2.49;100.00;90796.13;5075638;28;20132;-74
2023/11/25 08:21:25;;;;;;;3.30;2.50;;;;;;;2.34;100.00;90788.97;5077767;28;20045;-74
2023/11/25 08:23:52;;;;;;;2.78;1.73;;;;;;;2.48;100.00;90802.19;5074998;28;20052;-73
2023/11/25 08:26:19;;;;;;;3.97;2.83;;;;;;;2.41;100.00;90797.25;5071745;28;20565;-74
2023/11/25 08:28:46;;;;;;;8.38;5.13;;;;;;;2.65;100.00;90808.13;5078566;28;20807;-73
2023/11/25 08:31:13;;;;;;;6.70;4.15;;;;;;;2.69;100.00;90810.25;5078255;28;20044;-73
2023/11/25 08:33:41;;;;;;;6.45;3.80;;;;;;;2.61;100.00;90799.44;5074785;28;20052;-74
2023/11/25 08:36:11;;;;;;;7.43;4.50;;;;;;;2.76;100.00;90808.34;5073917;28;20040;-73
2023/11/25 08:38:37;;;;;;;4.80;3.30;;;;;;;2.78;100.00;90807.13;5076076;28;20540;-73
2023/11/25 08:41:06;;;;;;;3.95;2.90;;;;;;;2.74;100.00;90798.44;5076041;28;20059;-73
2023/11/25 08:43:33;;;;;;;3.42;1.92;;;;;;;2.74;100.00;90795.13;5077998;28;20049;-74
2023/11/25 08:46:01;;;;;;;3.17;2.00;;;;;;;2.39;100.00;90784.00;5078846;28;20146;-74
2023/11/25 08:48:29;;;;;;;4.40;2.72;;;;;;;2.25;100.00;90769.03;5072677;28;20047;-74
2023/11/25 08:50:56;;;;;;;3.20;1.83;;;;;;;2.25;100.00;90789.28;5075884;28;20127;-74
2023/11/25 08:53:25;;;;;;;3.05;1.80;;;;;;;2.26;100.00;90787.50;5079233;28;20052;-73
2023/11/25 08:55:54;;;;;;;2.22;1.35;;;;;;;2.44;100.00;90783.38;5076826;28;20535;-73
2023/11/25 08:58:22;;;;;;;2.10;1.48;;;;;;;2.48;100.00;90779.38;5075903;28;20078;-73
2023/11/25 09:00:51;;;;;;;3.05;1.83;;;;;;;2.52;100.00;90790.63;5077332;28;20058;-73
2023/11/25 09:03:18;;;;;;;3.25;1.90;;;;;;;2.62;100.00;90793.38;5078137;28;20041;-73
2023/11/25 09:05:47;;;;;;;9.50;4.85;;;;;;;2.84;100.00;90797.88;5075694;28;20052;-73
2023/11/25 09:08:14;;;;;;;7.95;4.55;;;;;;;2.93;100.00;90793.25;5075528;28;20058;-73
2023/11/25 09:10:43;;;;;;;11.63;5.80;;;;;;;3.04;100.00;90792.47;5076895;28;20036;-72
2023/11/25 09:13:29;;;;;;;12.05;7.10;;;;;;;3.14;100.00;90793.66;5075383;28;20120;-72
2023/11/25 09:15:57;;;;;;;10.48;7.30;;;;;;;3.21;100.00;90799.38;5072225;28;20060;-74
2023/11/25 09:18:25;;;;;;;13.77;8.35;;;;;;;3.34;100.00;90795.81;5076678;28;20048;-73
2023/11/25 09:20:52;;;;;;;11.35;7.18;;;;;;;3.36;100.00;90803.19;5072699;28;20049;-73
2023/11/25 09:23:19;;;;;;;14.27;7.53;;;;;;;3.42;100.00;90794.69;5073973;28;20054;-74
2023/11/25 09:25:47;;;;;;;12.48;7.00;;;;;;;3.48;100.00;90806.47;5075377;28;20052;-74
2023/11/25 09:28:14;;;;;;;7.85;5.60;;;;;;;3.10;100.00;90759.59;5072854;28;20044;-73
2023/11/25 09:30:41;;;;;;;8.95;4.93;;;;;;;3.31;100.00;90797.03;5079610;28;20047;-73
2023/11/25 09:33:08;;;;;;;10.73;7.88;;;;;;;3.42;100.00;90784.53;5077233;28;20493;-73
2023/11/25 09:35:35;;;;;;;9.93;7.70;;;;;;;3.29;100.00;90786.31;5073934;28;20044;-74
2023/11/25 09:38:02;;;;;;;7.97;6.38;;;;;;;3.30;100.00;90777.72;5074969;28;20051;-73
2023/11/25 09:40:29;;;;;;;12.32;9.00;;;;;;;3.32;100.00;90778.28;5077685;28;20048;-74
2023/11/25 09:42:57;;;;;;;33.13;22.45;;;;;;;3.20;100.00;90773.22;5073613;28;20044;-73
2023/11/25 09:45:29;;;;;;;21.92;14.15;;;;;;;3.23;100.00;90769.47;5073421;28;20037;-73
2023/11/25 09:47:56;;;;;;;6.93;4.90;;;;;;;3.15;100.00;90757.91;5071681;28;20048;-74
2023/11/25 09:50:23;;;;;;;6.05;4.00;;;;;;;3.15;100.00;90757.16;5072723;28;20054;-73
2023/11/25 09:52:51;;;;;;;4.10;2.92;;;;;;;3.02;100.00;90756.38;5075712;28;20126;-73
2023/11/25 09:55:18;;;;;;;3.55;2.17;;;;;;;2.79;100.00;90747.09;5072831;28;20059;-73
2023/11/25 09:57:47;;;;;;;2.25;1.20;;;;;;;2.34;100.00;90746.66;5068434;28;20055;-73
2023/11/25 10:00:17;;;;;;;3.60;2.40;;;;;;;2.38;100.00;90745.25;5069970;28;20502;-73
2023/11/25 10:02:46;;;;;;;4.20;2.72;;;;;;;2.22;100.00;90700.31;5070940;28;20060;-73
2023/11/25 10:05:13;;;;;;;2.78;2.05;;;;;;;2.37;100.00;90735.34;5073211;28;21089;-73
2023/11/25 10:07:40;;;;;;;3.25;1.75;;;;;;;2.50;100.00;90737.63;5071215;28;20048;-72
2023/11/25 10:10:07;;;;;;;2.58;1.63;;;;;;;2.40;100.00;90737.41;5070181;28;20049;-73
2023/11/25 10:12:34;;;;;;;3.00;1.73;;;;;;;2.38;100.00;90732.59;5069353;28;20048;-73
2023/11/25 10:15:03;;;;;;;3.50;1.90;;;;;;;2.51;100.00;90733.34;5068806;28;20054;-73
2023/11/25 10:17:32;;;;;;;2.10;1.60;;;;;;;2.59;100.00;90712.72;5069289;28;20425;-73
2023/11/25 10:20:09;;;;;;;2.47;1.67;;;;;;;2.62;100.00;90712.28;5083840;28;20044;-73
2023/11/25 10:22:45;;;;;;;3.13;2.05;;;;;;;2.59;100.00;90712.72;5079750;28;20048;-73
2023/11/25 10:25:13;;;;;;;2.28;1.33;;;;;;;2.60;100.00;90706.66;5080167;28;20551;-73
2023/11/25 10:27:40;;;;;;;2.97;1.80;;;;;;;2.60;100.00;90710.97;5081457;28;20048;-73
2023/11/25 10:30:08;;;;;;;2.85;1.92;;;;;;;2.54;100.00;90713.38;5079255;28;20410;-73
2023/11/25 10:32:39;;;;;;;3.38;2.42;;;;;;;2.47;100.00;90706.91;5067835;28;20114;-73
2023/11/25 10:35:08;;;;;;;4.35;2.42;;;;;;;2.57;100.00;90703.78;5067974;28;20417;-73
2023/11/25 10:37:35;;;;;;;3.05;1.73;;;;;;;2.21;100.00;90689.41;5079668;28;20106;-73
2023/11/25 10:40:03;;;;;;;2.65;1.40;;;;;;;2.30;100.00;90684.00;5071535;28;20048;-73
2023/11/25 10:42:30;;;;;;;2.40;1.42;;;;;;;2.04;100.00;90666.50;5067978;28;20059;-73
2023/11/25 10:44:58;;;;;;;4.28;2.10;;;;;;;1.86;100.00;90647.91;5067575;28;20056;-74
2023/11/25 10:47:33;;;;;;;10.02;6.28;;;;;;;2.01;100.00;90651.75;5067836;28;20055;-74
2023/11/25 10:50:03;;;;;;;10.10;6.93;;;;;;;1.89;100.00;90639.09;5075223;28;20137;-73
2023/11/25 10:52:36;;;;;;;7.65;4.82;;;;;;;1.91;100.00;90639.66;5068619;28;20048;-73
2023/11/25 10:55:04;;;;;;;8.07;4.75;;;;;;;1.93;100.00;90649.53;5071269;28;20167;-73
2023/11/25 10:57:33;;;;;;;7.40;4.63;;;;;;;1.97;100.00;90648.13;5070497;28;20052;-73
2023/11/25 11:00:02;;;;;;;12.43;8.50;;;;;;;1.90;100.00;90632.28;5068826;28;20051;-73
2023/11/25 11:02:32;;;;;;;10.63;6.38;;;;;;;1.82;100.00;90610.59;5074049;28;20491;-73
2023/11/25 11:05:08;;;;;;;14.60;10.55;;;;;;;1.66;100.00;90617.84;5079434;28;20448;-74
2023/11/25 11:07:39;;;;;;;10.80;7.03;;;;;;;1.86;100.00;90627.66;5078285;28;20052;-73
2023/11/25 11:10:12;;;;;;;6.90;3.88;;;;;;;1.41;100.00;90587.69;5073580;28;20067;-74
2023/11/25 11:12:43;;;;;;;7.35;3.47;;;;;;;1.46;100.00;90606.31;5070045;28;20131;-73
2023/11/25 11:15:15;;;;;;;7.45;4.40;;;;;;;1.19;100.00;90608.44;5069551;28;20074;-73
2023/11/25 11:17:53;;;;;;;9.88;5.95;;;;;;;1.10;100.00;90617.34;5070295;28;20049;-73
2023/11/25 11:20:25;;;;;;;4.45;2.63;;;;;;;1.18;100.00;90612.75;5068680;28;20067;-73
2023/11/25 11:22:53;;;;;;;4.85;2.70;;;;;;;1.17;100.00;90612.97;5066889;28;20055;-73
2023/11/25 11:25:24;;;;;;;3.65;2.45;;;;;;;1.15;100.00;90603.06;5070566;28;20044;-73
2023/11/25 11:28:01;;;;;;;3.92;2.47;;;;;;;1.22;100.00;90581.97;5069194;28;20056;-73
2023/11/25 11:30:41;;;;;;;6.65;4.18;;;;;;;1.14;100.00;90575.47;5068656;28;20095;-73